^^
Station Historical Data
 
Daily Summary for February 25, 2020 Units:  English    Metric   Both
« Previous Day
Next Day »
Daily Weekly Monthly Yearly Custom
  Current: High: Low: Average:
Temperature: 27.8 °F 28.2 °F 20.1 °F 23.5 °F
Dew Point: 20.3 °F 22.2 °F 16.6 °F 18.9 °F
Humidity: 73% 88% 73% 82%
Wind Speed: 10mph 15mph 2mph 7.7mph
Wind Gust: 17mph 18mph - -
WindNW - - ESE
Pressure: 30.52 in 30.55 in 30.24 in -
Precipitation: 0 in      
Historical Graphs
 
 
Tabular Data for February 25, 2020
Time Temperature Dew Point Pressure Wind Wind Speed Wind Gust Humidity Rainfall Rate (Hourly) solar Conditions
00:00 26 °F 18.8 °F 30.24 in North 9 mph 12 mph 74% 0 in 0.00 W/m2
00:05 25.7 °F 18.9 °F 30.24 in North 12 mph 13 mph 75% 0 in 0.00 W/m2
00:10 25.6 °F 18.5 °F 30.24 in NNE 11 mph 13 mph 74% 0 in 0.00 W/m2
00:15 25.5 °F 18 °F 30.24 in North 6 mph 13 mph 73% 0 in 0.00 W/m2
00:20 25.3 °F 18.2 °F 30.25 in NNE 10 mph 13 mph 74% 0 in 0.00 W/m2
00:25 24.9 °F 17.5 °F 30.25 in NNE 10 mph 13 mph 73% 0 in 0.00 W/m2
00:30 24.7 °F 17.6 °F 30.25 in North 8 mph 13 mph 74% 0 in 0.00 W/m2
00:35 24.4 °F 17.3 °F 30.25 in NNE 8 mph 13 mph 74% 0 in 0.00 W/m2
00:40 24.4 °F 17.3 °F 30.26 in NNE 8 mph 13 mph 74% 0 in 0.00 W/m2
00:45 24.3 °F 17.2 °F 30.26 in North 9 mph 12 mph 74% 0 in 0.00 W/m2
00:50 24.3 °F 17.5 °F 30.26 in North 9 mph 12 mph 75% 0 in 0.00 W/m2
00:55 24.3 °F 17.8 °F 30.26 in North 6 mph 12 mph 76% 0 in 0.00 W/m2
01:00 24.3 °F 17.8 °F 30.26 in NNE 8 mph 12 mph 76% 0 in 0.00 W/m2
01:05 24.3 °F 18.1 °F 30.27 in North 8 mph 12 mph 77% 0 in 0.00 W/m2
01:10 24.3 °F 18.4 °F 30.27 in NNE 8 mph 12 mph 78% 0 in 0.00 W/m2
01:15 24.3 °F 18.4 °F 30.27 in NNE 5 mph 11 mph 78% 0 in 0.00 W/m2
01:20 24.1 °F 18.5 °F 30.27 in NNE 11 mph 11 mph 79% 0 in 0.00 W/m2
01:25 24.1 °F 18.8 °F 30.27 in North 9 mph 11 mph 80% 0 in 0.00 W/m2
01:30 24 °F 18.7 °F 30.28 in North 9 mph 12 mph 80% 0 in 0.00 W/m2
01:35 24.1 °F 18.8 °F 30.28 in North 9 mph 12 mph 80% 0 in 0.00 W/m2
01:40 24.1 °F 18.8 °F 30.28 in NNE 8 mph 12 mph 80% 0 in 0.00 W/m2
01:45 23.9 °F 18.6 °F 30.28 in North 6 mph 12 mph 80% 0 in 0.00 W/m2
01:50 23.9 °F 18.9 °F 30.29 in NNE 8 mph 12 mph 81% 0 in 0.00 W/m2
01:55 23.9 °F 18.9 °F 30.29 in North 9 mph 12 mph 81% 0 in 0.00 W/m2
02:00 23.8 °F 18.8 °F 30.29 in North 9 mph 12 mph 81% 0 in 0.00 W/m2
02:05 23.6 °F 18.6 °F 30.29 in North 9 mph 12 mph 81% 0 in 0.00 W/m2
02:10 23.6 °F 18.6 °F 30.29 in North 9 mph 12 mph 81% 0 in 0.00 W/m2
02:15 23.6 °F 18.6 °F 30.30 in North 9 mph 12 mph 81% 0 in 0.00 W/m2
02:20 23.6 °F 18.6 °F 30.30 in North 5 mph 9 mph 81% 0 in 0.00 W/m2
02:25 23.5 °F 18.5 °F 30.30 in NNW 4 mph 9 mph 81% 0 in 0.00 W/m2
02:30 23.5 °F 18.5 °F 30.30 in NNE 5 mph 8 mph 81% 0 in 0.00 W/m2
02:35 23.4 °F 18.4 °F 30.30 in NNW 6 mph 9 mph 81% 0 in 0.00 W/m2
02:40 23.5 °F 18.5 °F 30.30 in NNE 7 mph 12 mph 81% 0 in 0.00 W/m2
02:45 23.5 °F 18.5 °F 30.31 in North 8 mph 12 mph 81% 0 in 0.00 W/m2
02:50 23.5 °F 18.2 °F 30.31 in North 8 mph 10 mph 80% 0 in 0.00 W/m2
02:55 23.6 °F 18.3 °F 30.31 in NNE 6 mph 13 mph 80% 0 in 0.00 W/m2
03:00 23.7 °F 18.4 °F 30.31 in NNE 11 mph 13 mph 80% 0 in 0.00 W/m2
03:05 23.8 °F 18.5 °F 30.32 in NE 7 mph 13 mph 80% 0 in 0.00 W/m2
03:10 23.8 °F 18.5 °F 30.31 in NNE 11 mph 14 mph 80% 0 in 0.00 W/m2
03:15 23.8 °F 18.8 °F 30.32 in NNE 10 mph 15 mph 81% 0 in 0.00 W/m2
03:20 23.8 °F 18.8 °F 30.32 in NNE 15 mph 18 mph 81% 0 in 0.00 W/m2
03:25 23.7 °F 18.7 °F 30.32 in NNE 9 mph 18 mph 81% 0 in 0.00 W/m2
03:30 23.6 °F 18.6 °F 30.32 in NNE 10 mph 18 mph 81% 0 in 0.00 W/m2
03:35 23.5 °F 18.5 °F 30.32 in NE 13 mph 18 mph 81% 0 in 0.00 W/m2
03:40 23.4 °F 18.4 °F 30.32 in NE 14 mph 16 mph 81% 0 in 0.00 W/m2
03:45 23.3 °F 18.3 °F 30.32 in NNE 11 mph 16 mph 81% 0 in 0.00 W/m2
03:50 23.2 °F 18.5 °F 30.33 in NNE 10 mph 15 mph 82% 0 in 0.00 W/m2
03:55 23.2 °F 18.5 °F 30.33 in NNE 9 mph 16 mph 82% 0 in 0.00 W/m2
04:00 23.1 °F 18.4 °F 30.33 in NNE 11 mph 16 mph 82% 0 in 0.00 W/m2
04:05 23 °F 18.6 °F 30.34 in NNE 12 mph 16 mph 83% 0 in 0.00 W/m2
04:10 22.9 °F 18.5 °F 30.34 in North 11 mph 16 mph 83% 0 in 0.00 W/m2
04:15 22.9 °F 18.5 °F 30.34 in NNE 8 mph 16 mph 83% 0 in 0.00 W/m2
04:20 22.8 °F 18.4 °F 30.35 in NNE 11 mph 15 mph 83% 0 in 0.00 W/m2
04:25 22.8 °F 18.4 °F 30.35 in NNE 12 mph 16 mph 83% 0 in 0.00 W/m2
04:30 22.9 °F 18.8 °F 30.35 in NNE 8 mph 16 mph 84% 0 in 0.00 W/m2
04:35 22.8 °F 18.7 °F 30.35 in NNE 8 mph 16 mph 84% 0 in 0.00 W/m2
04:40 22.8 °F 18.7 °F 30.35 in NNE 5 mph 16 mph 84% 0 in 0.00 W/m2
04:45 22.9 °F 18.8 °F 30.36 in NNE 12 mph 16 mph 84% 0 in 0.00 W/m2
04:50 22.9 °F 19.1 °F 30.36 in North 11 mph 16 mph 85% 0 in 0.00 W/m2
04:55 22.9 °F 19.1 °F 30.36 in NNE 9 mph 16 mph 85% 0 in 0.00 W/m2
05:00 22.9 °F 19.1 °F 30.37 in NNE 5 mph 14 mph 85% 0 in 0.00 W/m2
05:05 22.9 °F 19.1 °F 30.37 in NNE 5 mph 14 mph 85% 0 in 0.00 W/m2
05:10 22.9 °F 19.1 °F 30.38 in NNE 10 mph 14 mph 85% 0 in 0.00 W/m2
05:15 22.9 °F 19.1 °F 30.38 in NNE 6 mph 14 mph 85% 0 in 0.00 W/m2
05:20 22.9 °F 19.1 °F 30.38 in North 9 mph 14 mph 85% 0 in 0.00 W/m2
05:25 22.9 °F 18.8 °F 30.39 in NNE 11 mph 14 mph 84% 0 in 0.00 W/m2
05:30 22.9 °F 18.8 °F 30.39 in NNE 10 mph 15 mph 84% 0 in 0.00 W/m2
05:35 22.9 °F 18.8 °F 30.39 in NNE 9 mph 15 mph 84% 0 in 0.00 W/m2
05:40 22.7 °F 18.6 °F 30.40 in NNE 8 mph 15 mph 84% 0 in 0.00 W/m2
05:45 22.7 °F 18.6 °F 30.40 in North 9 mph 15 mph 84% 0 in 0.00 W/m2
05:50 22.7 °F 18.6 °F 30.41 in North 9 mph 13 mph 84% 0 in 0.00 W/m2
05:55 22.7 °F 18.9 °F 30.41 in NNE 5 mph 11 mph 85% 0 in 0.00 W/m2
06:00 22.7 °F 18.6 °F 30.41 in NNE 10 mph 13 mph 84% 0 in 0.00 W/m2
06:05 22.7 °F 18.9 °F 30.41 in NNE 8 mph 13 mph 85% 0 in 0.00 W/m2
06:10 22.6 °F 18.8 °F 30.41 in NNE 8 mph 13 mph 85% 0 in 0.00 W/m2
06:15 22.5 °F 18.7 °F 30.42 in NNE 8 mph 15 mph 85% 0 in 0.00 W/m2
06:20 22.4 °F 18.6 °F 30.42 in NNE 11 mph 15 mph 85% 0 in 0.00 W/m2
06:25 22.2 °F 18.4 °F 30.43 in North 9 mph 14 mph 85% 0 in 0.00 W/m2
06:30 22.1 °F 18.3 °F 30.43 in NNE 9 mph 14 mph 85% 0 in 0.00 W/m2
06:35 22 °F 18.2 °F 30.43 in North 8 mph 14 mph 85% 0 in 0.00 W/m2
06:40 21.8 °F 18 °F 30.43 in NNE 9 mph 12 mph 85% 0 in 0.00 W/m2
06:45 21.7 °F 17.9 °F 30.43 in North 8 mph 12 mph 85% 0 in 0.00 W/m2
06:50 21.5 °F 18 °F 30.43 in North 4 mph 11 mph 86% 0 in 0.00 W/m2
06:55 21.5 °F 18 °F 30.44 in North 7 mph 11 mph 86% 0 in 0.00 W/m2
07:00 21.3 °F 17.8 °F 30.43 in NNE 8 mph 11 mph 86% 0 in 0.00 W/m2
07:05 21.2 °F 17.7 °F 30.44 in North 7 mph 11 mph 86% 0 in 0.00 W/m2
07:10 21.1 °F 17.6 °F 30.44 in North 9 mph 12 mph 86% 0 in 0.00 W/m2
07:15 21.1 °F 17.6 °F 30.44 in North 10 mph 12 mph 86% 0 in 0.00 W/m2
07:20 21 °F 17.5 °F 30.45 in North 8 mph 12 mph 86% 0 in 0.00 W/m2
07:25 20.8 °F 17.3 °F 30.45 in NNE 7 mph 13 mph 86% 0 in 0.00 W/m2
07:30 20.7 °F 17.2 °F 30.45 in NNE 8 mph 13 mph 86% 0 in 5.00 W/m2
07:35 20.6 °F 17.1 °F 30.45 in North 10 mph 13 mph 86% 0 in 7.00 W/m2
07:40 20.5 °F 17 °F 30.45 in North 10 mph 13 mph 86% 0 in 11.00 W/m2
07:45 20.4 °F 16.9 °F 30.45 in NNE 5 mph 13 mph 86% 0 in 12.00 W/m2
07:50 20.3 °F 16.8 °F 30.46 in NNE 8 mph 13 mph 86% 0 in 18.00 W/m2
07:55 20.1 °F 16.6 °F 30.46 in North 6 mph 13 mph 86% 0 in 25.00 W/m2
08:00 20.1 °F 16.6 °F 30.47 in NNE 2 mph 13 mph 86% 0 in 35.00 W/m2
08:05 20.1 °F 16.6 °F 30.47 in North 6 mph 9 mph 86% 0 in 42.00 W/m2
08:10 20.1 °F 16.9 °F 30.47 in NNE 5 mph 10 mph 87% 0 in 49.00 W/m2
08:15 20.2 °F 17 °F 30.48 in NNE 12 mph 14 mph 87% 0 in 56.00 W/m2
08:20 20.3 °F 17 °F 30.48 in North 9 mph 14 mph 87% 0 in 67.00 W/m2
08:25 20.5 °F 17.5 °F 30.48 in North 9 mph 14 mph 88% 0 in 83.00 W/m2
08:30 20.6 °F 17.6 °F 30.49 in North 10 mph 14 mph 88% 0 in 88.00 W/m2
08:35 20.8 °F 17.8 °F 30.49 in North 10 mph 13 mph 88% 0 in 114.00 W/m2
08:40 20.9 °F 17.6 °F 30.49 in NNE 10 mph 13 mph 87% 0 in 128.00 W/m2
08:45 21.1 °F 18.1 °F 30.50 in North 10 mph 13 mph 88% 0 in 116.00 W/m2
08:50 21.3 °F 18.3 °F 30.50 in North 10 mph 13 mph 88% 0 in 111.00 W/m2
08:55 21.4 °F 18.1 °F 30.50 in NNW 5 mph 13 mph 87% 0 in 120.00 W/m2
09:00 21.5 °F 18.2 °F 30.50 in North 6 mph 12 mph 87% 0 in 102.00 W/m2
09:05 21.6 °F 18.3 °F 30.51 in NNW 6 mph 12 mph 87% 0 in 90.00 W/m2
09:10 21.7 °F 18.4 °F 30.51 in NNE 7 mph 12 mph 87% 0 in 104.00 W/m2
09:15 21.8 °F 18.5 °F 30.51 in NNE 9 mph 12 mph 87% 0 in 107.00 W/m2
09:20 22 °F 18.7 °F 30.51 in NNE 8 mph 12 mph 87% 0 in 127.00 W/m2
09:25 22.1 °F 18.8 °F 30.51 in NNE 5 mph 12 mph 87% 0 in 104.00 W/m2
09:30 22.2 °F 18.9 °F 30.51 in NNE 9 mph 10 mph 87% 0 in 102.00 W/m2
09:35 22.2 °F 18.9 °F 30.52 in North 11 mph 13 mph 87% 0 in 100.00 W/m2
09:40 22.3 °F 18.7 °F 30.51 in North 6 mph 13 mph 86% 0 in 132.00 W/m2
09:45 22.4 °F 19.1 °F 30.52 in North 5 mph 12 mph 87% 0 in 125.00 W/m2
09:50 22.5 °F 18.9 °F 30.52 in NNE 5 mph 12 mph 86% 0 in 127.00 W/m2
09:55 22.5 °F 18.7 °F 30.52 in NE 7 mph 12 mph 85% 0 in 139.00 W/m2
10:00 22.5 °F 18.7 °F 30.52 in NNE 8 mph 11 mph 85% 0 in 130.00 W/m2
10:05 22.5 °F 18.7 °F 30.52 in NNE 4 mph 11 mph 85% 0 in 114.00 W/m2
10:10 22.4 °F 18.6 °F 30.52 in NNE 10 mph 11 mph 85% 0 in 84.00 W/m2
10:15 22.4 °F 18.6 °F 30.53 in NNE 11 mph 13 mph 85% 0 in 121.00 W/m2
10:20 22.4 °F 18.8 °F 30.53 in NNE 4 mph 13 mph 86% 0 in 134.00 W/m2
10:25 22.4 °F 18.8 °F 30.53 in North 6 mph 11 mph 86% 0 in 130.00 W/m2
10:30 22.5 °F 18.9 °F 30.53 in NNE 9 mph 11 mph 86% 0 in 128.00 W/m2
10:35 22.3 °F 18.5 °F 30.53 in North 8 mph 11 mph 85% 0 in 162.00 W/m2
10:40 22.2 °F 18.7 °F 30.53 in North 9 mph 11 mph 86% 0 in 146.00 W/m2
10:45 22.1 °F 18.6 °F 30.53 in North 8 mph 11 mph 86% 0 in 142.00 W/m2
10:50 22 °F 18.7 °F 30.53 in NNW 4 mph 11 mph 87% 0 in 146.00 W/m2
10:55 21.9 °F 18.4 °F 30.53 in North 4 mph 10 mph 86% 0 in 172.00 W/m2
11:00 22.1 °F 18.8 °F 30.53 in NNW 4 mph 10 mph 87% 0 in 204.00 W/m2
11:05 22 °F 18.5 °F 30.53 in NNW 5 mph 10 mph 86% 0 in 237.00 W/m2
11:10 22 °F 18.5 °F 30.54 in NW 3 mph 8 mph 86% 0 in 216.00 W/m2
11:15 22 °F 18.5 °F 30.54 in NNW 5 mph 8 mph 86% 0 in 195.00 W/m2
11:20 22.1 °F 18.6 °F 30.54 in North 5 mph 8 mph 86% 0 in 234.00 W/m2
11:25 22.5 °F 18.9 °F 30.54 in WNW 3 mph 8 mph 86% 0 in 258.00 W/m2
11:30 22.4 °F 18.6 °F 30.54 in NNW 2 mph 6 mph 85% 0 in 355.00 W/m2
11:35 22.5 °F 18.7 °F 30.54 in NNW 3 mph 6 mph 85% 0 in 336.00 W/m2
11:40 22.8 °F 19 °F 30.54 in West 4 mph 6 mph 85% 0 in 366.00 W/m2
11:45 23 °F 18.9 °F 30.54 in NNW 4 mph 8 mph 84% 0 in 330.00 W/m2
11:50 22.9 °F 18.5 °F 30.54 in NW 3 mph 8 mph 83% 0 in 237.00 W/m2
11:55 22.7 °F 18.6 °F 30.54 in WNW 4 mph 8 mph 84% 0 in 355.00 W/m2
12:00 22.9 °F 18.8 °F 30.54 in WNW 7 mph 8 mph 84% 0 in 264.00 W/m2
12:05 22.9 °F 18.8 °F 30.54 in WNW 4 mph 8 mph 84% 0 in 341.00 W/m2
12:10 23 °F 18.6 °F 30.54 in NW 5 mph 8 mph 83% 0 in 617.00 W/m2
12:15 23.7 °F 19.6 °F 30.54 in NNE 4 mph 8 mph 84% 0 in 573.00 W/m2
12:20 24.3 °F 19.6 °F 30.55 in NW 4 mph 9 mph 82% 0 in 543.00 W/m2
12:25 24.2 °F 19.5 °F 30.54 in NW 4 mph 9 mph 82% 0 in 387.00 W/m2
12:30 24.1 °F 19.4 °F 30.54 in NW 2 mph 9 mph 82% 0 in 399.00 W/m2
12:35 24 °F 19.3 °F 30.54 in NNW 3 mph 9 mph 82% 0 in 374.00 W/m2
12:40 24.4 °F 19.7 °F 30.54 in NNW 5 mph 8 mph 82% 0 in 380.00 W/m2
12:45 24.5 °F 19.8 °F 30.54 in NNW 5 mph 8 mph 82% 0 in 345.00 W/m2
12:50 24.9 °F 19.9 °F 30.54 in NW 6 mph 9 mph 81% 0 in 394.00 W/m2
12:55 24.7 °F 19.7 °F 30.54 in NNW 4 mph 9 mph 81% 0 in 287.00 W/m2
13:00 25 °F 20 °F 30.53 in NW 5 mph 9 mph 81% 0 in 301.00 W/m2
13:05 25 °F 20 °F 30.54 in NW 4 mph 9 mph 81% 0 in 345.00 W/m2
13:10 25.3 °F 20.6 °F 30.53 in NW 8 mph 8 mph 82% 0 in 369.00 W/m2
13:15 25.4 °F 20.7 °F 30.53 in WNW 5 mph 10 mph 82% 0 in 490.00 W/m2
13:20 25.6 °F 20.3 °F 30.53 in West 4 mph 10 mph 80% 0 in 283.00 W/m2
13:25 25.8 °F 21.1 °F 30.53 in West 6 mph 10 mph 82% 0 in 513.00 W/m2
13:30 25.4 °F 20.4 °F 30.53 in NW 7 mph 10 mph 81% 0 in 264.00 W/m2
13:35 25.6 °F 20.9 °F 30.53 in West 6 mph 9 mph 82% 0 in 613.00 W/m2
13:40 25.7 °F 20.4 °F 30.53 in NW 7 mph 10 mph 80% 0 in 570.00 W/m2
13:45 26.2 °F 20.9 °F 30.53 in West 9 mph 10 mph 80% 0 in 353.00 W/m2
13:50 26.5 °F 21.7 °F 30.53 in West 7 mph 11 mph 82% 0 in 763.00 W/m2
13:55 26.4 °F 21.1 °F 30.53 in NW 5 mph 11 mph 80% 0 in 373.00 W/m2
14:00 26.6 °F 21.3 °F 30.53 in West 7 mph 11 mph 80% 0 in 687.00 W/m2
14:05 27 °F 21.7 °F 30.53 in West 7 mph 11 mph 80% 0 in 431.00 W/m2
14:10 26.9 °F 21.3 °F 30.53 in WNW 2 mph 12 mph 79% 0 in 580.00 W/m2
14:15 27.2 °F 21.5 °F 30.52 in WNW 6 mph 12 mph 79% 0 in 318.00 W/m2
14:20 27.2 °F 21.5 °F 30.52 in WNW 12 mph 13 mph 79% 0 in 306.00 W/m2
14:25 27.4 °F 21.7 °F 30.52 in West 9 mph 14 mph 79% 0 in 352.00 W/m2
14:30 27.4 °F 21.4 °F 30.52 in NW 11 mph 14 mph 78% 0 in 313.00 W/m2
14:35 27.6 °F 21.6 °F 30.52 in WNW 8 mph 12 mph 78% 0 in 352.00 W/m2
14:40 27.6 °F 21.6 °F 30.52 in West 9 mph 15 mph 78% 0 in 329.00 W/m2
14:45 27.6 °F 21.3 °F 30.52 in WNW 8 mph 15 mph 77% 0 in 294.00 W/m2
14:50 27.7 °F 21.7 °F 30.52 in West 10 mph 15 mph 78% 0 in 276.00 W/m2
14:55 27.9 °F 22.2 °F 30.52 in West 7 mph 15 mph 79% 0 in 258.00 W/m2
15:00 27.9 °F 21.9 °F 30.52 in WNW 8 mph 11 mph 78% 0 in 202.00 W/m2
15:05 27.9 °F 21.9 °F 30.52 in WNW 10 mph 12 mph 78% 0 in 225.00 W/m2
15:10 28.1 °F 21.5 °F 30.52 in West 9 mph 14 mph 76% 0 in 243.00 W/m2
15:15 28.2 °F 21.6 °F 30.52 in West 12 mph 14 mph 76% 0 in 538.00 W/m2
15:20 28 °F 21.1 °F 30.52 in WNW 12 mph 14 mph 75% 0 in 323.00 W/m2
15:25 28 °F 20.8 °F 30.52 in West 11 mph 14 mph 74% 0 in 236.00 W/m2
15:30 27.9 °F 20.4 °F 30.52 in NW 7 mph 16 mph 73% 0 in 255.00 W/m2
15:35 27.9 °F 20.4 °F 30.52 in WNW 13 mph 17 mph 73% 0 in 241.00 W/m2
15:40 27.8 °F 20.3 °F 30.52 in NW 10 mph 17 mph 73% 0 in 197.00 W/m2
Bismarck, North Dakota, USA
Compliments of Weather Underground - 2 mb